CheckWX is a tool to help pilots better visualize weather data.  It is not intended as a substitute for an official pre-flight weather briefing.

18:04:17 UTC

KHSA METAR
Stennis International Airport
Bay St Louis, Mississippi, USA
Current

14 mins ago

KHSA 241750Z 13005KT 7SM SCT013 BKN034 24/20 A3001
Observed
Apr-24 @ 17:50 UTC
Wind
  • 130° at 5 KTS
Visibility
7 SM
Flight Rules
VFR
Cloud Levels
  • Scattered at 1,300' AGL
  • Broken at 3,400' AGL
Temperature
24°C / 75°F
Dewpoint
20°C / 68°F
Humidity
78%
Altimeter
30.01" Hg
Pressure
1016.22 hPa
Previous

1 hour ago

KHSA 241650Z 13005KT 7SM SCT013 BKN034 23/20 A3005
Observed
Apr-24 @ 16:50 UTC
Wind
  • 130° at 5 KTS
Visibility
7 SM
Flight Rules
VFR
Cloud Levels
  • Scattered at 1,300' AGL
  • Broken at 3,400' AGL
Temperature
23°C / 73°F
Dewpoint
20°C / 68°F
Humidity
83%
Altimeter
30.05" Hg
Pressure
1017.62 hPa
Previous

2 hours ago

KHSA 241550Z 12005KT 7SM SCT009 BKN030 22/20 A3005
Observed
Apr-24 @ 15:50 UTC
Wind
  • 120° at 5 KTS
Visibility
7 SM
Flight Rules
MVFR
Cloud Levels
  • Scattered at 900' AGL
  • Broken at 3,000' AGL
Temperature
22°C / 72°F
Dewpoint
20°C / 68°F
Humidity
88%
Altimeter
30.05" Hg
Pressure
1017.62 hPa